sensor_id;sensor_type;location;lat;lon;timestamp;temperature;humidity
18876;DHT22;9570;50.854;13.778;2022-07-15T00:02:13;13.40;99.90
18876;DHT22;9570;50.854;13.778;2022-07-15T00:04:39;13.50;99.90
18876;DHT22;9570;50.854;13.778;2022-07-15T00:07:05;13.50;99.90
18876;DHT22;9570;50.854;13.778;2022-07-15T00:09:31;13.30;99.90
18876;DHT22;9570;50.854;13.778;2022-07-15T00:12:15;13.30;99.90
18876;DHT22;9570;50.854;13.778;2022-07-15T00:14:41;13.30;99.90
18876;DHT22;9570;50.854;13.778;2022-07-15T00:17:07;13.20;99.90
18876;DHT22;9570;50.854;13.778;2022-07-15T00:19:34;13.20;99.90
18876;DHT22;9570;50.854;13.778;2022-07-15T00:22:00;13.20;99.90
18876;DHT22;9570;50.854;13.778;2022-07-15T00:24:25;13.20;99.90
18876;DHT22;9570;50.854;13.778;2022-07-15T00:26:51;13.20;99.90
18876;DHT22;9570;50.854;13.778;2022-07-15T00:29:16;13.10;99.90
18876;DHT22;9570;50.854;13.778;2022-07-15T00:31:42;13.10;99.90
18876;DHT22;9570;50.854;13.778;2022-07-15T00:34:08;13.00;99.90
18876;DHT22;9570;50.854;13.778;2022-07-15T00:36:33;13.00;99.90
18876;DHT22;9570;50.854;13.778;2022-07-15T00:38:58;12.90;99.90
18876;DHT22;9570;50.854;13.778;2022-07-15T00:41:24;12.90;99.90
18876;DHT22;9570;50.854;13.778;2022-07-15T00:43:50;12.80;99.90
18876;DHT22;9570;50.854;13.778;2022-07-15T00:46:17;12.80;99.90
18876;DHT22;9570;50.854;13.778;2022-07-15T00:48:43;12.80;99.90
18876;DHT22;9570;50.854;13.778;2022-07-15T00:51:09;12.80;99.90
18876;DHT22;9570;50.854;13.778;2022-07-15T00:53:36;12.80;99.90
18876;DHT22;9570;50.854;13.778;2022-07-15T00:56:03;12.80;99.90
18876;DHT22;9570;50.854;13.778;2022-07-15T00:58:29;12.70;99.90
18876;DHT22;9570;50.854;13.778;2022-07-15T01:00:58;12.70;99.90
18876;DHT22;9570;50.854;13.778;2022-07-15T01:03:26;12.60;99.90
18876;DHT22;9570;50.854;13.778;2022-07-15T01:05:54;12.50;99.90
18876;DHT22;9570;50.854;13.778;2022-07-15T01:08:19;12.50;99.90
18876;DHT22;9570;50.854;13.778;2022-07-15T01:10:46;12.40;99.90
18876;DHT22;9570;50.854;13.778;2022-07-15T01:13:12;12.30;99.90
18876;DHT22;9570;50.854;13.778;2022-07-15T01:15:37;12.30;99.90
18876;DHT22;9570;50.854;13.778;2022-07-15T01:18:03;12.30;99.90
18876;DHT22;9570;50.854;13.778;2022-07-15T01:20:29;12.20;99.90
18876;DHT22;9570;50.854;13.778;2022-07-15T01:22:56;12.20;99.90
18876;DHT22;9570;50.854;13.778;2022-07-15T01:25:21;12.20;99.90
18876;DHT22;9570;50.854;13.778;2022-07-15T01:27:47;12.20;99.90
18876;DHT22;9570;50.854;13.778;2022-07-15T01:30:12;12.10;99.90
18876;DHT22;9570;50.854;13.778;2022-07-15T01:32:38;12.10;99.90
18876;DHT22;9570;50.854;13.778;2022-07-15T01:35:04;12.10;99.90
18876;DHT22;9570;50.854;13.778;2022-07-15T01:37:29;12.20;99.90
18876;DHT22;9570;50.854;13.778;2022-07-15T01:39:55;12.10;99.90
18876;DHT22;9570;50.854;13.778;2022-07-15T01:42:20;12.10;99.90
18876;DHT22;9570;50.854;13.778;2022-07-15T01:44:46;12.10;99.90
18876;DHT22;9570;50.854;13.778;2022-07-15T01:47:11;12.10;99.90
18876;DHT22;9570;50.854;13.778;2022-07-15T01:49:37;12.00;99.90
18876;DHT22;9570;50.854;13.778;2022-07-15T01:52:03;12.00;99.90
18876;DHT22;9570;50.854;13.778;2022-07-15T01:54:30;12.00;99.90
18876;DHT22;9570;50.854;13.778;2022-07-15T01:56:56;12.00;99.90
18876;DHT22;9570;50.854;13.778;2022-07-15T01:59:23;11.90;99.90
18876;DHT22;9570;50.854;13.778;2022-07-15T02:01:50;11.90;99.90
18876;DHT22;9570;50.854;13.778;2022-07-15T02:04:17;11.80;99.90
18876;DHT22;9570;50.854;13.778;2022-07-15T02:06:43;11.80;99.90
18876;DHT22;9570;50.854;13.778;2022-07-15T02:09:09;11.80;99.90
18876;DHT22;9570;50.854;13.778;2022-07-15T02:11:35;11.70;99.90
18876;DHT22;9570;50.854;13.778;2022-07-15T02:14:00;11.70;99.90
18876;DHT22;9570;50.854;13.778;2022-07-15T02:16:28;11.80;99.90
18876;DHT22;9570;50.854;13.778;2022-07-15T02:18:54;11.70;99.90
18876;DHT22;9570;50.854;13.778;2022-07-15T02:21:20;11.70;99.90
18876;DHT22;9570;50.854;13.778;2022-07-15T02:23:45;11.70;99.90
18876;DHT22;9570;50.854;13.778;2022-07-15T02:26:11;11.70;99.90
18876;DHT22;9570;50.854;13.778;2022-07-15T02:28:37;11.70;99.90
18876;DHT22;9570;50.854;13.778;2022-07-15T02:31:02;11.60;99.90
18876;DHT22;9570;50.854;13.778;2022-07-15T02:33:28;11.60;99.90
18876;DHT22;9570;50.854;13.778;2022-07-15T02:35:53;11.60;99.90
18876;DHT22;9570;50.854;13.778;2022-07-15T02:38:19;11.60;99.90
18876;DHT22;9570;50.854;13.778;2022-07-15T02:40:45;11.60;99.90
18876;DHT22;9570;50.854;13.778;2022-07-15T02:43:10;11.50;99.90
18876;DHT22;9570;50.854;13.778;2022-07-15T02:45:37;11.50;99.90
18876;DHT22;9570;50.854;13.778;2022-07-15T02:48:04;11.60;99.90
18876;DHT22;9570;50.854;13.778;2022-07-15T02:50:30;11.60;99.90
18876;DHT22;9570;50.854;13.778;2022-07-15T02:52:56;11.60;99.90
18876;DHT22;9570;50.854;13.778;2022-07-15T02:55:21;11.60;99.90
18876;DHT22;9570;50.854;13.778;2022-07-15T02:57:47;11.60;99.90
18876;DHT22;9570;50.854;13.778;2022-07-15T03:00:14;11.50;99.90
18876;DHT22;9570;50.854;13.778;2022-07-15T03:02:41;11.50;99.90
18876;DHT22;9570;50.854;13.778;2022-07-15T03:05:07;11.50;99.90
18876;DHT22;9570;50.854;13.778;2022-07-15T03:07:33;11.50;99.90
18876;DHT22;9570;50.854;13.778;2022-07-15T03:09:59;11.50;99.90
18876;DHT22;9570;50.854;13.778;2022-07-15T03:12:24;11.50;99.90
18876;DHT22;9570;50.854;13.778;2022-07-15T03:14:50;11.50;99.90
18876;DHT22;9570;50.854;13.778;2022-07-15T03:17:15;11.40;99.90
18876;DHT22;9570;50.854;13.778;2022-07-15T03:19:41;11.40;99.90
18876;DHT22;9570;50.854;13.778;2022-07-15T03:22:07;11.40;99.90
18876;DHT22;9570;50.854;13.778;2022-07-15T03:24:32;11.50;99.90
18876;DHT22;9570;50.854;13.778;2022-07-15T03:26:58;11.40;99.90
18876;DHT22;9570;50.854;13.778;2022-07-15T03:29:23;11.40;99.90
18876;DHT22;9570;50.854;13.778;2022-07-15T03:31:49;11.40;99.90
18876;DHT22;9570;50.854;13.778;2022-07-15T03:34:15;11.50;99.90
18876;DHT22;9570;50.854;13.778;2022-07-15T03:36:40;11.50;99.90
18876;DHT22;9570;50.854;13.778;2022-07-15T03:39:06;11.40;99.90
18876;DHT22;9570;50.854;13.778;2022-07-15T03:41:33;11.40;99.90
18876;DHT22;9570;50.854;13.778;2022-07-15T03:44:00;11.40;99.90
18876;DHT22;9570;50.854;13.778;2022-07-15T03:46:25;11.40;99.90
18876;DHT22;9570;50.854;13.778;2022-07-15T03:48:51;11.40;99.90
18876;DHT22;9570;50.854;13.778;2022-07-15T03:51:17;11.40;99.90
18876;DHT22;9570;50.854;13.778;2022-07-15T03:53:43;11.40;99.90
18876;DHT22;9570;50.854;13.778;2022-07-15T03:56:08;11.40;99.90
18876;DHT22;9570;50.854;13.778;2022-07-15T03:58:34;11.50;99.90
18876;DHT22;9570;50.854;13.778;2022-07-15T04:00:59;11.50;99.90
18876;DHT22;9570;50.854;13.778;2022-07-15T04:03:25;11.50;99.90
18876;DHT22;9570;50.854;13.778;2022-07-15T04:05:50;11.50;99.90
18876;DHT22;9570;50.854;13.778;2022-07-15T04:08:15;11.50;99.90
18876;DHT22;9570;50.854;13.778;2022-07-15T04:10:41;11.50;99.90
18876;DHT22;9570;50.854;13.778;2022-07-15T04:13:06;11.60;99.90
18876;DHT22;9570;50.854;13.778;2022-07-15T04:15:32;11.60;99.90
18876;DHT22;9570;50.854;13.778;2022-07-15T04:17:57;11.60;99.90
18876;DHT22;9570;50.854;13.778;2022-07-15T04:20:24;11.70;99.90
18876;DHT22;9570;50.854;13.778;2022-07-15T04:22:50;11.80;99.90
18876;DHT22;9570;50.854;13.778;2022-07-15T04:25:18;11.90;99.90
18876;DHT22;9570;50.854;13.778;2022-07-15T04:27:45;12.10;99.90
18876;DHT22;9570;50.854;13.778;2022-07-15T04:30:11;12.30;99.90
18876;DHT22;9570;50.854;13.778;2022-07-15T04:32:38;12.40;99.90
18876;DHT22;9570;50.854;13.778;2022-07-15T04:35:04;12.50;99.90
18876;DHT22;9570;50.854;13.778;2022-07-15T04:37:30;12.70;99.90
18876;DHT22;9570;50.854;13.778;2022-07-15T04:39:56;12.80;99.90
18876;DHT22;9570;50.854;13.778;2022-07-15T04:42:22;13.00;99.90
18876;DHT22;9570;50.854;13.778;2022-07-15T04:44:47;13.10;99.90
18876;DHT22;9570;50.854;13.778;2022-07-15T04:47:13;13.20;99.90
18876;DHT22;9570;50.854;13.778;2022-07-15T04:49:39;13.30;99.90
18876;DHT22;9570;50.854;13.778;2022-07-15T04:52:24;13.40;99.90
18876;DHT22;9570;50.854;13.778;2022-07-15T04:54:51;13.40;99.90
18876;DHT22;9570;50.854;13.778;2022-07-15T04:57:17;13.60;99.90
18876;DHT22;9570;50.854;13.778;2022-07-15T04:59:43;13.70;99.90
18876;DHT22;9570;50.854;13.778;2022-07-15T05:02:08;13.90;99.90
18876;DHT22;9570;50.854;13.778;2022-07-15T05:04:34;14.00;99.90
18876;DHT22;9570;50.854;13.778;2022-07-15T05:06:59;14.10;99.90
18876;DHT22;9570;50.854;13.778;2022-07-15T05:09:25;14.10;99.90
18876;DHT22;9570;50.854;13.778;2022-07-15T05:11:50;14.20;99.90
18876;DHT22;9570;50.854;13.778;2022-07-15T05:14:16;14.20;99.90
18876;DHT22;9570;50.854;13.778;2022-07-15T05:16:41;14.20;99.90
18876;DHT22;9570;50.854;13.778;2022-07-15T05:19:07;14.30;99.90
18876;DHT22;9570;50.854;13.778;2022-07-15T05:21:33;14.40;99.90
18876;DHT22;9570;50.854;13.778;2022-07-15T05:23:58;14.40;99.90
18876;DHT22;9570;50.854;13.778;2022-07-15T05:26:23;14.30;99.90
18876;DHT22;9570;50.854;13.778;2022-07-15T05:28:49;14.40;99.90
18876;DHT22;9570;50.854;13.778;2022-07-15T05:31:15;14.40;99.90
18876;DHT22;9570;50.854;13.778;2022-07-15T05:33:40;14.40;99.90
18876;DHT22;9570;50.854;13.778;2022-07-15T05:36:11;14.30;99.90
18876;DHT22;9570;50.854;13.778;2022-07-15T05:38:36;14.40;99.90
18876;DHT22;9570;50.854;13.778;2022-07-15T05:41:02;14.50;99.90
18876;DHT22;9570;50.854;13.778;2022-07-15T05:43:27;14.60;99.90
18876;DHT22;9570;50.854;13.778;2022-07-15T05:45:53;14.50;99.90
18876;DHT22;9570;50.854;13.778;2022-07-15T05:48:18;14.50;99.90
18876;DHT22;9570;50.854;13.778;2022-07-15T05:50:43;14.60;99.90
18876;DHT22;9570;50.854;13.778;2022-07-15T05:53:09;14.80;99.90
18876;DHT22;9570;50.854;13.778;2022-07-15T05:55:34;15.00;99.90
18876;DHT22;9570;50.854;13.778;2022-07-15T05:58:00;15.00;99.90
18876;DHT22;9570;50.854;13.778;2022-07-15T06:00:30;15.00;99.90
18876;DHT22;9570;50.854;13.778;2022-07-15T06:02:55;14.80;99.90
18876;DHT22;9570;50.854;13.778;2022-07-15T06:05:21;14.90;99.90
18876;DHT22;9570;50.854;13.778;2022-07-15T06:07:46;15.10;99.90
18876;DHT22;9570;50.854;13.778;2022-07-15T06:10:11;15.10;99.90
18876;DHT22;9570;50.854;13.778;2022-07-15T06:12:37;15.20;99.90
18876;DHT22;9570;50.854;13.778;2022-07-15T06:15:03;15.30;99.90
18876;DHT22;9570;50.854;13.778;2022-07-15T06:17:29;15.30;99.90
18876;DHT22;9570;50.854;13.778;2022-07-15T06:19:55;15.40;99.90
18876;DHT22;9570;50.854;13.778;2022-07-15T06:22:21;15.40;99.90
18876;DHT22;9570;50.854;13.778;2022-07-15T06:24:46;15.50;99.90
18876;DHT22;9570;50.854;13.778;2022-07-15T06:27:12;15.40;99.90
18876;DHT22;9570;50.854;13.778;2022-07-15T06:29:37;15.30;99.90
18876;DHT22;9570;50.854;13.778;2022-07-15T06:32:03;15.30;99.90
18876;DHT22;9570;50.854;13.778;2022-07-15T06:34:28;15.20;99.90
18876;DHT22;9570;50.854;13.778;2022-07-15T06:36:54;15.30;99.90
18876;DHT22;9570;50.854;13.778;2022-07-15T06:39:19;15.30;99.90
18876;DHT22;9570;50.854;13.778;2022-07-15T06:41:45;15.40;99.90
18876;DHT22;9570;50.854;13.778;2022-07-15T06:44:11;15.60;99.90
18876;DHT22;9570;50.854;13.778;2022-07-15T06:46:36;15.60;99.90
18876;DHT22;9570;50.854;13.778;2022-07-15T06:49:02;15.60;99.90
18876;DHT22;9570;50.854;13.778;2022-07-15T06:51:27;15.70;99.90
18876;DHT22;9570;50.854;13.778;2022-07-15T06:53:53;15.60;99.90
18876;DHT22;9570;50.854;13.778;2022-07-15T06:56:18;15.50;99.90
18876;DHT22;9570;50.854;13.778;2022-07-15T06:58:44;15.30;99.90
18876;DHT22;9570;50.854;13.778;2022-07-15T07:01:10;15.40;99.90
18876;DHT22;9570;50.854;13.778;2022-07-15T07:03:36;15.20;99.90
18876;DHT22;9570;50.854;13.778;2022-07-15T07:06:01;15.30;99.90
18876;DHT22;9570;50.854;13.778;2022-07-15T07:08:27;15.50;99.90
18876;DHT22;9570;50.854;13.778;2022-07-15T07:10:53;15.60;99.90
18876;DHT22;9570;50.854;13.778;2022-07-15T07:13:18;15.60;99.90
18876;DHT22;9570;50.854;13.778;2022-07-15T07:15:44;15.60;99.90
18876;DHT22;9570;50.854;13.778;2022-07-15T07:18:10;15.60;99.90
18876;DHT22;9570;50.854;13.778;2022-07-15T07:20:36;15.70;99.90
18876;DHT22;9570;50.854;13.778;2022-07-15T07:23:02;15.80;99.90
18876;DHT22;9570;50.854;13.778;2022-07-15T07:25:28;15.90;99.90
18876;DHT22;9570;50.854;13.778;2022-07-15T07:27:53;15.60;99.90
18876;DHT22;9570;50.854;13.778;2022-07-15T07:30:19;15.50;99.90
18876;DHT22;9570;50.854;13.778;2022-07-15T07:32:44;15.60;99.90
18876;DHT22;9570;50.854;13.778;2022-07-15T07:35:10;15.80;99.90
18876;DHT22;9570;50.854;13.778;2022-07-15T07:37:36;16.00;99.90
18876;DHT22;9570;50.854;13.778;2022-07-15T07:40:06;16.00;99.90
18876;DHT22;9570;50.854;13.778;2022-07-15T07:42:32;16.00;99.90
18876;DHT22;9570;50.854;13.778;2022-07-15T07:44:57;16.00;99.90
18876;DHT22;9570;50.854;13.778;2022-07-15T07:47:25;16.10;99.90
18876;DHT22;9570;50.854;13.778;2022-07-15T07:49:50;16.00;99.90
18876;DHT22;9570;50.854;13.778;2022-07-15T07:52:16;16.10;99.90
18876;DHT22;9570;50.854;13.778;2022-07-15T07:54:41;16.20;99.90
18876;DHT22;9570;50.854;13.778;2022-07-15T07:57:22;16.10;99.90
18876;DHT22;9570;50.854;13.778;2022-07-15T07:59:48;16.10;99.90
18876;DHT22;9570;50.854;13.778;2022-07-15T08:02:13;16.20;99.90
18876;DHT22;9570;50.854;13.778;2022-07-15T08:04:39;16.40;99.90
18876;DHT22;9570;50.854;13.778;2022-07-15T08:07:06;16.50;99.90
18876;DHT22;9570;50.854;13.778;2022-07-15T08:09:31;16.60;99.90
18876;DHT22;9570;50.854;13.778;2022-07-15T08:11:57;16.70;99.90
18876;DHT22;9570;50.854;13.778;2022-07-15T08:14:22;16.90;99.90
18876;DHT22;9570;50.854;13.778;2022-07-15T08:16:49;17.20;99.90
18876;DHT22;9570;50.854;13.778;2022-07-15T08:19:15;17.50;99.90
18876;DHT22;9570;50.854;13.778;2022-07-15T08:21:42;17.50;99.90
18876;DHT22;9570;50.854;13.778;2022-07-15T08:24:08;17.60;99.90
18876;DHT22;9570;50.854;13.778;2022-07-15T08:26:35;18.10;99.90
18876;DHT22;9570;50.854;13.778;2022-07-15T08:29:01;18.60;99.90
18876;DHT22;9570;50.854;13.778;2022-07-15T08:31:26;19.00;99.90
18876;DHT22;9570;50.854;13.778;2022-07-15T08:33:52;19.50;99.90
18876;DHT22;9570;50.854;13.778;2022-07-15T08:36:19;20.00;99.90
18876;DHT22;9570;50.854;13.778;2022-07-15T08:38:44;19.90;99.90
18876;DHT22;9570;50.854;13.778;2022-07-15T08:41:12;19.90;99.90
18876;DHT22;9570;50.854;13.778;2022-07-15T08:43:39;20.20;99.90
18876;DHT22;9570;50.854;13.778;2022-07-15T08:46:06;20.40;99.90
18876;DHT22;9570;50.854;13.778;2022-07-15T08:48:35;20.70;99.90
18876;DHT22;9570;50.854;13.778;2022-07-15T08:51:03;20.90;99.90
18876;DHT22;9570;50.854;13.778;2022-07-15T08:53:29;21.40;99.90
18876;DHT22;9570;50.854;13.778;2022-07-15T08:55:56;21.60;99.90
18876;DHT22;9570;50.854;13.778;2022-07-15T08:58:22;21.20;99.90
18876;DHT22;9570;50.854;13.778;2022-07-15T09:00:48;21.10;99.90
18876;DHT22;9570;50.854;13.778;2022-07-15T09:03:14;21.00;99.90
18876;DHT22;9570;50.854;13.778;2022-07-15T09:05:40;21.10;99.90
18876;DHT22;9570;50.854;13.778;2022-07-15T09:08:11;21.10;99.90
18876;DHT22;9570;50.854;13.778;2022-07-15T09:10:56;20.90;99.90
18876;DHT22;9570;50.854;13.778;2022-07-15T09:13:29;20.60;99.90
18876;DHT22;9570;50.854;13.778;2022-07-15T09:18:28;20.30;99.90
18876;DHT22;9570;50.854;13.778;2022-07-15T09:20:54;20.40;99.90
18876;DHT22;9570;50.854;13.778;2022-07-15T09:23:24;20.10;99.90
18876;DHT22;9570;50.854;13.778;2022-07-15T09:26:40;20.00;99.90
18876;DHT22;9570;50.854;13.778;2022-07-15T09:28:41;20.20;99.90
18876;DHT22;9570;50.854;13.778;2022-07-15T09:31:07;20.30;99.90
18876;DHT22;9570;50.854;13.778;2022-07-15T09:33:59;20.50;99.90
18876;DHT22;9570;50.854;13.778;2022-07-15T09:36:28;20.10;99.90
18876;DHT22;9570;50.854;13.778;2022-07-15T09:38:56;19.70;99.90
18876;DHT22;9570;50.854;13.778;2022-07-15T09:41:28;19.50;99.90
18876;DHT22;9570;50.854;13.778;2022-07-15T09:46:54;19.20;99.90
18876;DHT22;9570;50.854;13.778;2022-07-15T09:51:59;19.40;99.90
18876;DHT22;9570;50.854;13.778;2022-07-15T09:54:27;19.10;99.90
18876;DHT22;9570;50.854;13.778;2022-07-15T09:56:57;19.10;99.90
18876;DHT22;9570;50.854;13.778;2022-07-15T09:59:26;19.10;99.90
18876;DHT22;9570;50.854;13.778;2022-07-15T10:01:51;19.00;99.90
18876;DHT22;9570;50.854;13.778;2022-07-15T10:04:20;18.90;99.90
18876;DHT22;9570;50.854;13.778;2022-07-15T10:06:48;18.90;99.90
18876;DHT22;9570;50.854;13.778;2022-07-15T10:09:13;18.80;99.90
18876;DHT22;9570;50.854;13.778;2022-07-15T10:11:43;18.70;99.90
18876;DHT22;9570;50.854;13.778;2022-07-15T10:14:29;18.60;99.90
18876;DHT22;9570;50.854;13.778;2022-07-15T10:17:13;18.80;99.90
18876;DHT22;9570;50.854;13.778;2022-07-15T10:28:51;18.90;99.90
18876;DHT22;9570;50.854;13.778;2022-07-15T10:31:29;19.20;99.90
18876;DHT22;9570;50.854;13.778;2022-07-15T10:39:19;19.50;99.90
18876;DHT22;9570;50.854;13.778;2022-07-15T10:44:17;19.40;99.90
18876;DHT22;9570;50.854;13.778;2022-07-15T10:46:43;19.50;99.90
18876;DHT22;9570;50.854;13.778;2022-07-15T10:54:07;19.40;99.90
18876;DHT22;9570;50.854;13.778;2022-07-15T10:56:37;19.40;99.90
18876;DHT22;9570;50.854;13.778;2022-07-15T11:01:38;19.30;99.90
18876;DHT22;9570;50.854;13.778;2022-07-15T11:12:54;19.80;99.90
18876;DHT22;9570;50.854;13.778;2022-07-15T11:15:14;19.60;99.90
18876;DHT22;9570;50.854;13.778;2022-07-15T11:17:46;19.70;99.90
18876;DHT22;9570;50.854;13.778;2022-07-15T11:20:17;20.10;99.90
18876;DHT22;9570;50.854;13.778;2022-07-15T11:22:48;20.50;99.90
18876;DHT22;9570;50.854;13.778;2022-07-15T11:25:19;20.70;99.90
18876;DHT22;9570;50.854;13.778;2022-07-15T11:28:08;20.70;99.90
18876;DHT22;9570;50.854;13.778;2022-07-15T11:30:44;20.40;99.90
18876;DHT22;9570;50.854;13.778;2022-07-15T11:33:17;20.00;99.90
18876;DHT22;9570;50.854;13.778;2022-07-15T11:38:10;19.80;99.90
18876;DHT22;9570;50.854;13.778;2022-07-15T11:40:35;19.90;99.90
18876;DHT22;9570;50.854;13.778;2022-07-15T11:43:20;20.00;99.90
18876;DHT22;9570;50.854;13.778;2022-07-15T11:46:06;20.00;99.90
18876;DHT22;9570;50.854;13.778;2022-07-15T11:48:38;19.90;99.90
18876;DHT22;9570;50.854;13.778;2022-07-15T11:51:06;19.90;99.90
18876;DHT22;9570;50.854;13.778;2022-07-15T11:53:38;20.20;99.90
18876;DHT22;9570;50.854;13.778;2022-07-15T11:56:04;20.40;99.90
18876;DHT22;9570;50.854;13.778;2022-07-15T11:58:49;20.10;99.90
18876;DHT22;9570;50.854;13.778;2022-07-15T12:01:23;19.70;99.90
18876;DHT22;9570;50.854;13.778;2022-07-15T12:03:51;19.60;99.90
18876;DHT22;9570;50.854;13.778;2022-07-15T12:06:22;19.50;99.90
18876;DHT22;9570;50.854;13.778;2022-07-15T12:08:48;19.40;99.90
18876;DHT22;9570;50.854;13.778;2022-07-15T12:11:31;19.40;99.90
18876;DHT22;9570;50.854;13.778;2022-07-15T12:14:06;19.40;99.90
18876;DHT22;9570;50.854;13.778;2022-07-15T12:16:54;19.40;99.90
18876;DHT22;9570;50.854;13.778;2022-07-15T12:19:27;19.80;99.90
18876;DHT22;9570;50.854;13.778;2022-07-15T12:21:58;19.80;99.90
18876;DHT22;9570;50.854;13.778;2022-07-15T12:24:45;19.80;99.90
18876;DHT22;9570;50.854;13.778;2022-07-15T12:27:12;19.70;99.90
18876;DHT22;9570;50.854;13.778;2022-07-15T12:29:39;19.60;99.90
18876;DHT22;9570;50.854;13.778;2022-07-15T12:32:08;19.50;99.90
18876;DHT22;9570;50.854;13.778;2022-07-15T12:34:50;19.50;99.90
18876;DHT22;9570;50.854;13.778;2022-07-15T12:37:21;19.60;99.90
18876;DHT22;9570;50.854;13.778;2022-07-15T12:42:29;19.50;99.90
18876;DHT22;9570;50.854;13.778;2022-07-15T12:47:35;19.70;99.90
18876;DHT22;9570;50.854;13.778;2022-07-15T12:50:00;19.90;99.90
18876;DHT22;9570;50.854;13.778;2022-07-15T12:54:58;20.00;99.90
18876;DHT22;9570;50.854;13.778;2022-07-15T12:57:28;19.90;99.90
18876;DHT22;9570;50.854;13.778;2022-07-15T13:00:15;19.80;99.90
18876;DHT22;9570;50.854;13.778;2022-07-15T13:05:23;20.00;99.90
18876;DHT22;9570;50.854;13.778;2022-07-15T13:07:48;20.30;99.90
18876;DHT22;9570;50.854;13.778;2022-07-15T13:10:14;20.60;99.90
18876;DHT22;9570;50.854;13.778;2022-07-15T13:12:39;20.70;99.90
18876;DHT22;9570;50.854;13.778;2022-07-15T13:15:06;20.70;99.90
18876;DHT22;9570;50.854;13.778;2022-07-15T13:17:31;20.80;99.90
18876;DHT22;9570;50.854;13.778;2022-07-15T13:19:57;20.70;99.90
18876;DHT22;9570;50.854;13.778;2022-07-15T13:22:22;20.70;99.90
18876;DHT22;9570;50.854;13.778;2022-07-15T13:24:48;20.70;99.90
18876;DHT22;9570;50.854;13.778;2022-07-15T13:27:13;20.70;99.90
18876;DHT22;9570;50.854;13.778;2022-07-15T13:29:39;20.50;99.90
18876;DHT22;9570;50.854;13.778;2022-07-15T13:32:05;20.60;99.90
18876;DHT22;9570;50.854;13.778;2022-07-15T13:34:31;20.60;99.90
18876;DHT22;9570;50.854;13.778;2022-07-15T13:36:56;20.30;99.90
18876;DHT22;9570;50.854;13.778;2022-07-15T13:39:22;20.30;99.90
18876;DHT22;9570;50.854;13.778;2022-07-15T13:41:47;20.30;99.90
18876;DHT22;9570;50.854;13.778;2022-07-15T13:44:12;20.30;99.90
18876;DHT22;9570;50.854;13.778;2022-07-15T13:46:38;20.20;99.90
18876;DHT22;9570;50.854;13.778;2022-07-15T13:49:03;20.20;99.90
18876;DHT22;9570;50.854;13.778;2022-07-15T13:51:29;20.20;99.90
18876;DHT22;9570;50.854;13.778;2022-07-15T13:53:56;20.30;99.90
18876;DHT22;9570;50.854;13.778;2022-07-15T13:56:22;20.60;99.90
18876;DHT22;9570;50.854;13.778;2022-07-15T13:58:48;20.70;99.90
18876;DHT22;9570;50.854;13.778;2022-07-15T14:01:15;20.80;99.90
18876;DHT22;9570;50.854;13.778;2022-07-15T14:03:40;20.70;99.90
18876;DHT22;9570;50.854;13.778;2022-07-15T14:06:06;20.60;99.90
18876;DHT22;9570;50.854;13.778;2022-07-15T14:08:32;20.50;99.90
18876;DHT22;9570;50.854;13.778;2022-07-15T14:10:57;20.40;99.90
18876;DHT22;9570;50.854;13.778;2022-07-15T14:13:23;20.40;99.90
18876;DHT22;9570;50.854;13.778;2022-07-15T14:15:48;20.10;99.90
18876;DHT22;9570;50.854;13.778;2022-07-15T14:18:14;20.10;99.90
18876;DHT22;9570;50.854;13.778;2022-07-15T14:20:39;20.10;99.90
18876;DHT22;9570;50.854;13.778;2022-07-15T14:23:07;20.20;99.90
18876;DHT22;9570;50.854;13.778;2022-07-15T14:25:33;20.30;99.90
18876;DHT22;9570;50.854;13.778;2022-07-15T14:27:58;20.20;99.90
18876;DHT22;9570;50.854;13.778;2022-07-15T14:30:24;20.30;99.90
18876;DHT22;9570;50.854;13.778;2022-07-15T14:32:49;20.30;99.90
18876;DHT22;9570;50.854;13.778;2022-07-15T14:35:15;20.10;99.90
18876;DHT22;9570;50.854;13.778;2022-07-15T14:37:40;20.10;99.90
18876;DHT22;9570;50.854;13.778;2022-07-15T14:40:07;20.10;99.90
18876;DHT22;9570;50.854;13.778;2022-07-15T14:42:33;20.10;99.90
18876;DHT22;9570;50.854;13.778;2022-07-15T14:44:59;20.00;99.90
18876;DHT22;9570;50.854;13.778;2022-07-15T14:47:25;20.10;99.90
18876;DHT22;9570;50.854;13.778;2022-07-15T14:49:50;20.00;99.90
18876;DHT22;9570;50.854;13.778;2022-07-15T14:52:16;20.00;99.90
18876;DHT22;9570;50.854;13.778;2022-07-15T14:54:42;20.00;99.90
18876;DHT22;9570;50.854;13.778;2022-07-15T14:57:08;20.10;99.90
18876;DHT22;9570;50.854;13.778;2022-07-15T14:59:33;20.20;99.90
18876;DHT22;9570;50.854;13.778;2022-07-15T15:02:03;20.30;99.90
18876;DHT22;9570;50.854;13.778;2022-07-15T15:04:29;20.30;99.90
18876;DHT22;9570;50.854;13.778;2022-07-15T15:06:54;20.30;99.90
18876;DHT22;9570;50.854;13.778;2022-07-15T15:09:20;20.30;99.90
18876;DHT22;9570;50.854;13.778;2022-07-15T15:11:45;20.30;99.90
18876;DHT22;9570;50.854;13.778;2022-07-15T15:14:11;20.30;99.90
18876;DHT22;9570;50.854;13.778;2022-07-15T15:16:36;20.30;99.90
18876;DHT22;9570;50.854;13.778;2022-07-15T15:19:02;20.30;99.90
18876;DHT22;9570;50.854;13.778;2022-07-15T15:21:27;20.30;99.90
18876;DHT22;9570;50.854;13.778;2022-07-15T15:23:53;20.40;99.90
18876;DHT22;9570;50.854;13.778;2022-07-15T15:26:18;20.50;99.90
18876;DHT22;9570;50.854;13.778;2022-07-15T15:28:54;20.40;99.90
18876;DHT22;9570;50.854;13.778;2022-07-15T15:31:20;20.20;99.90
18876;DHT22;9570;50.854;13.778;2022-07-15T15:33:46;20.10;99.90
18876;DHT22;9570;50.854;13.778;2022-07-15T15:36:12;20.10;99.90
18876;DHT22;9570;50.854;13.778;2022-07-15T15:38:38;20.10;99.90
18876;DHT22;9570;50.854;13.778;2022-07-15T15:41:04;20.20;99.90
18876;DHT22;9570;50.854;13.778;2022-07-15T15:43:29;20.10;99.90
18876;DHT22;9570;50.854;13.778;2022-07-15T15:45:55;20.10;99.90
18876;DHT22;9570;50.854;13.778;2022-07-15T15:48:20;20.10;99.90
18876;DHT22;9570;50.854;13.778;2022-07-15T15:50:46;20.10;99.90
18876;DHT22;9570;50.854;13.778;2022-07-15T15:53:11;20.20;99.90
18876;DHT22;9570;50.854;13.778;2022-07-15T15:55:37;20.30;99.90
18876;DHT22;9570;50.854;13.778;2022-07-15T15:58:02;20.30;99.90
18876;DHT22;9570;50.854;13.778;2022-07-15T16:00:28;20.30;99.90
18876;DHT22;9570;50.854;13.778;2022-07-15T16:02:53;20.20;99.90
18876;DHT22;9570;50.854;13.778;2022-07-15T16:05:19;20.10;99.90
18876;DHT22;9570;50.854;13.778;2022-07-15T16:07:44;20.10;99.90
18876;DHT22;9570;50.854;13.778;2022-07-15T16:10:10;20.00;99.90
18876;DHT22;9570;50.854;13.778;2022-07-15T16:12:35;19.90;99.90
18876;DHT22;9570;50.854;13.778;2022-07-15T16:15:02;19.90;99.90
18876;DHT22;9570;50.854;13.778;2022-07-15T16:17:28;19.90;99.90
18876;DHT22;9570;50.854;13.778;2022-07-15T16:19:54;19.90;99.90
18876;DHT22;9570;50.854;13.778;2022-07-15T16:22:19;19.90;99.90
18876;DHT22;9570;50.854;13.778;2022-07-15T16:25:04;19.80;99.90